sensor_id;sensor_type;location;lat;lon;timestamp;P1;durP1;ratioP1;P2;durP2;ratioP2
43529;SDS011;55654;50.966;6.878;2023-02-11T00:00:18;41.53;;;21.67;;
43529;SDS011;55654;50.966;6.878;2023-02-11T00:02:44;36.80;;;20.43;;
43529;SDS011;55654;50.966;6.878;2023-02-11T00:05:10;35.37;;;20.67;;
43529;SDS011;55654;50.966;6.878;2023-02-11T00:07:36;34.23;;;20.50;;
43529;SDS011;55654;50.966;6.878;2023-02-11T00:10:03;33.23;;;20.23;;
43529;SDS011;55654;50.966;6.878;2023-02-11T00:12:31;32.30;;;20.43;;
43529;SDS011;55654;50.966;6.878;2023-02-11T00:14:57;34.93;;;19.80;;
43529;SDS011;55654;50.966;6.878;2023-02-11T00:17:23;40.07;;;20.43;;
43529;SDS011;55654;50.966;6.878;2023-02-11T00:19:50;33.43;;;19.97;;
43529;SDS011;55654;50.966;6.878;2023-02-11T00:22:16;36.73;;;20.33;;
43529;SDS011;55654;50.966;6.878;2023-02-11T00:24:43;37.70;;;21.17;;
43529;SDS011;55654;50.966;6.878;2023-02-11T00:27:11;35.83;;;20.33;;
43529;SDS011;55654;50.966;6.878;2023-02-11T00:29:37;35.20;;;20.93;;
43529;SDS011;55654;50.966;6.878;2023-02-11T00:32:04;33.80;;;18.80;;
43529;SDS011;55654;50.966;6.878;2023-02-11T00:34:30;31.33;;;18.57;;
43529;SDS011;55654;50.966;6.878;2023-02-11T00:36:59;32.60;;;18.73;;
43529;SDS011;55654;50.966;6.878;2023-02-11T00:39:25;35.10;;;19.43;;
43529;SDS011;55654;50.966;6.878;2023-02-11T00:41:51;31.67;;;19.40;;
43529;SDS011;55654;50.966;6.878;2023-02-11T00:44:17;38.23;;;20.43;;
43529;SDS011;55654;50.966;6.878;2023-02-11T00:46:43;31.93;;;19.83;;
43529;SDS011;55654;50.966;6.878;2023-02-11T00:49:09;30.63;;;20.10;;
43529;SDS011;55654;50.966;6.878;2023-02-11T00:51:35;37.23;;;21.00;;
43529;SDS011;55654;50.966;6.878;2023-02-11T00:54:01;32.80;;;20.87;;
43529;SDS011;55654;50.966;6.878;2023-02-11T00:56:27;38.87;;;21.33;;
43529;SDS011;55654;50.966;6.878;2023-02-11T00:58:53;34.83;;;20.03;;
43529;SDS011;55654;50.966;6.878;2023-02-11T01:01:19;40.33;;;21.27;;
43529;SDS011;55654;50.966;6.878;2023-02-11T01:03:45;41.13;;;21.83;;
43529;SDS011;55654;50.966;6.878;2023-02-11T01:06:11;34.33;;;20.57;;
43529;SDS011;55654;50.966;6.878;2023-02-11T01:08:37;38.43;;;20.73;;
43529;SDS011;55654;50.966;6.878;2023-02-11T01:11:11;38.80;;;20.43;;
43529;SDS011;55654;50.966;6.878;2023-02-11T01:13:37;41.93;;;21.53;;
43529;SDS011;55654;50.966;6.878;2023-02-11T01:16:05;35.17;;;21.43;;
43529;SDS011;55654;50.966;6.878;2023-02-11T01:18:34;36.47;;;21.90;;
43529;SDS011;55654;50.966;6.878;2023-02-11T01:21:00;31.63;;;20.10;;
43529;SDS011;55654;50.966;6.878;2023-02-11T01:23:26;41.27;;;20.70;;
43529;SDS011;55654;50.966;6.878;2023-02-11T01:25:52;38.43;;;21.50;;
43529;SDS011;55654;50.966;6.878;2023-02-11T01:28:23;37.70;;;21.13;;
43529;SDS011;55654;50.966;6.878;2023-02-11T01:30:50;34.63;;;20.77;;
43529;SDS011;55654;50.966;6.878;2023-02-11T01:33:16;37.63;;;22.40;;
43529;SDS011;55654;50.966;6.878;2023-02-11T01:35:42;35.63;;;21.63;;
43529;SDS011;55654;50.966;6.878;2023-02-11T01:38:13;42.77;;;22.63;;
43529;SDS011;55654;50.966;6.878;2023-02-11T01:40:40;41.67;;;22.02;;
43529;SDS011;55654;50.966;6.878;2023-02-11T01:43:06;37.80;;;22.33;;
43529;SDS011;55654;50.966;6.878;2023-02-11T01:48:08;35.50;;;20.83;;
43529;SDS011;55654;50.966;6.878;2023-02-11T01:50:35;38.60;;;23.03;;
43529;SDS011;55654;50.966;6.878;2023-02-11T01:53:02;46.47;;;23.87;;
43529;SDS011;55654;50.966;6.878;2023-02-11T01:55:48;34.20;;;21.30;;
43529;SDS011;55654;50.966;6.878;2023-02-11T01:58:33;40.00;;;22.60;;
43529;SDS011;55654;50.966;6.878;2023-02-11T02:01:01;38.70;;;23.27;;
43529;SDS011;55654;50.966;6.878;2023-02-11T02:03:27;36.67;;;21.70;;
43529;SDS011;55654;50.966;6.878;2023-02-11T02:05:57;37.23;;;22.33;;
43529;SDS011;55654;50.966;6.878;2023-02-11T02:10:59;40.50;;;23.10;;
43529;SDS011;55654;50.966;6.878;2023-02-11T02:13:26;40.13;;;20.47;;
43529;SDS011;55654;50.966;6.878;2023-02-11T02:21:03;39.40;;;21.90;;
43529;SDS011;55654;50.966;6.878;2023-02-11T02:31:01;41.20;;;22.73;;
43529;SDS011;55654;50.966;6.878;2023-02-11T02:33:51;40.10;;;23.20;;
43529;SDS011;55654;50.966;6.878;2023-02-11T02:38:49;41.77;;;24.23;;
43529;SDS011;55654;50.966;6.878;2023-02-11T02:41:18;43.07;;;24.00;;
43529;SDS011;55654;50.966;6.878;2023-02-11T02:43:49;40.33;;;24.73;;
43529;SDS011;55654;50.966;6.878;2023-02-11T02:46:23;48.60;;;25.37;;
43529;SDS011;55654;50.966;6.878;2023-02-11T02:48:49;46.67;;;23.77;;
43529;SDS011;55654;50.966;6.878;2023-02-11T02:54:20;40.37;;;24.13;;
43529;SDS011;55654;50.966;6.878;2023-02-11T02:59:46;49.90;;;26.73;;
43529;SDS011;55654;50.966;6.878;2023-02-11T03:07:49;48.10;;;26.43;;
43529;SDS011;55654;50.966;6.878;2023-02-11T03:12:44;43.20;;;27.53;;
43529;SDS011;55654;50.966;6.878;2023-02-11T03:15:14;51.40;;;27.30;;
43529;SDS011;55654;50.966;6.878;2023-02-11T03:17:43;47.13;;;26.30;;
43529;SDS011;55654;50.966;6.878;2023-02-11T03:20:11;55.93;;;28.07;;
43529;SDS011;55654;50.966;6.878;2023-02-11T03:22:48;51.37;;;28.37;;
43529;SDS011;55654;50.966;6.878;2023-02-11T03:25:18;49.40;;;28.43;;
43529;SDS011;55654;50.966;6.878;2023-02-11T03:27:46;52.93;;;29.20;;
43529;SDS011;55654;50.966;6.878;2023-02-11T03:30:20;49.80;;;27.07;;
43529;SDS011;55654;50.966;6.878;2023-02-11T03:33:11;46.87;;;26.13;;
43529;SDS011;55654;50.966;6.878;2023-02-11T03:35:40;46.13;;;27.10;;
43529;SDS011;55654;50.966;6.878;2023-02-11T03:38:13;52.03;;;27.30;;
43529;SDS011;55654;50.966;6.878;2023-02-11T03:40:43;48.75;;;27.85;;
43529;SDS011;55654;50.966;6.878;2023-02-11T03:43:14;50.80;;;27.50;;
43529;SDS011;55654;50.966;6.878;2023-02-11T03:45:42;48.83;;;26.93;;
43529;SDS011;55654;50.966;6.878;2023-02-11T03:48:21;42.97;;;26.37;;
43529;SDS011;55654;50.966;6.878;2023-02-11T03:50:48;54.53;;;28.47;;
43529;SDS011;55654;50.966;6.878;2023-02-11T03:53:15;45.37;;;25.27;;
43529;SDS011;55654;50.966;6.878;2023-02-11T03:55:42;48.90;;;27.43;;
43529;SDS011;55654;50.966;6.878;2023-02-11T03:58:08;53.67;;;25.63;;
43529;SDS011;55654;50.966;6.878;2023-02-11T04:00:36;48.83;;;25.60;;
43529;SDS011;55654;50.966;6.878;2023-02-11T04:03:03;50.03;;;25.37;;
43529;SDS011;55654;50.966;6.878;2023-02-11T04:05:29;48.47;;;26.20;;
43529;SDS011;55654;50.966;6.878;2023-02-11T04:07:55;46.90;;;24.70;;
43529;SDS011;55654;50.966;6.878;2023-02-11T04:10:21;44.00;;;26.40;;
43529;SDS011;55654;50.966;6.878;2023-02-11T04:12:48;44.87;;;25.60;;
43529;SDS011;55654;50.966;6.878;2023-02-11T04:15:16;46.93;;;24.57;;
43529;SDS011;55654;50.966;6.878;2023-02-11T04:17:42;46.03;;;25.60;;
43529;SDS011;55654;50.966;6.878;2023-02-11T04:20:10;39.93;;;24.23;;
43529;SDS011;55654;50.966;6.878;2023-02-11T04:22:37;48.57;;;25.80;;
43529;SDS011;55654;50.966;6.878;2023-02-11T04:25:03;52.33;;;26.07;;
43529;SDS011;55654;50.966;6.878;2023-02-11T04:27:30;46.27;;;24.63;;
43529;SDS011;55654;50.966;6.878;2023-02-11T04:29:56;43.93;;;24.63;;
43529;SDS011;55654;50.966;6.878;2023-02-11T04:32:22;47.27;;;23.70;;
43529;SDS011;55654;50.966;6.878;2023-02-11T04:34:48;42.33;;;23.50;;
43529;SDS011;55654;50.966;6.878;2023-02-11T04:37:14;44.77;;;23.20;;
43529;SDS011;55654;50.966;6.878;2023-02-11T04:39:43;44.17;;;24.63;;
43529;SDS011;55654;50.966;6.878;2023-02-11T04:42:09;38.50;;;22.87;;
43529;SDS011;55654;50.966;6.878;2023-02-11T04:44:34;46.03;;;21.93;;
43529;SDS011;55654;50.966;6.878;2023-02-11T04:47:00;49.10;;;24.60;;
43529;SDS011;55654;50.966;6.878;2023-02-11T04:49:27;54.57;;;23.97;;
43529;SDS011;55654;50.966;6.878;2023-02-11T04:51:53;44.33;;;23.80;;
43529;SDS011;55654;50.966;6.878;2023-02-11T04:54:19;44.50;;;23.73;;
43529;SDS011;55654;50.966;6.878;2023-02-11T04:56:47;44.63;;;23.60;;
43529;SDS011;55654;50.966;6.878;2023-02-11T04:59:13;38.33;;;21.93;;
43529;SDS011;55654;50.966;6.878;2023-02-11T05:01:42;44.37;;;22.93;;
43529;SDS011;55654;50.966;6.878;2023-02-11T05:04:08;40.20;;;22.53;;
43529;SDS011;55654;50.966;6.878;2023-02-11T05:06:34;42.47;;;20.90;;
43529;SDS011;55654;50.966;6.878;2023-02-11T05:09:00;39.87;;;23.67;;
43529;SDS011;55654;50.966;6.878;2023-02-11T05:11:25;39.23;;;22.50;;
43529;SDS011;55654;50.966;6.878;2023-02-11T05:13:51;35.47;;;20.90;;
43529;SDS011;55654;50.966;6.878;2023-02-11T05:16:18;42.37;;;22.10;;
43529;SDS011;55654;50.966;6.878;2023-02-11T05:18:44;42.07;;;22.27;;
43529;SDS011;55654;50.966;6.878;2023-02-11T05:21:12;46.07;;;22.17;;
43529;SDS011;55654;50.966;6.878;2023-02-11T05:23:39;54.17;;;22.23;;
43529;SDS011;55654;50.966;6.878;2023-02-11T05:26:05;43.87;;;22.90;;
43529;SDS011;55654;50.966;6.878;2023-02-11T05:28:31;43.43;;;22.53;;
43529;SDS011;55654;50.966;6.878;2023-02-11T05:31:00;47.97;;;24.00;;
43529;SDS011;55654;50.966;6.878;2023-02-11T05:33:26;48.37;;;23.07;;
43529;SDS011;55654;50.966;6.878;2023-02-11T05:35:56;53.53;;;24.83;;
43529;SDS011;55654;50.966;6.878;2023-02-11T05:38:22;50.40;;;24.33;;
43529;SDS011;55654;50.966;6.878;2023-02-11T05:40:51;51.40;;;24.87;;
43529;SDS011;55654;50.966;6.878;2023-02-11T05:43:17;53.90;;;26.70;;
43529;SDS011;55654;50.966;6.878;2023-02-11T05:45:43;51.50;;;26.47;;
43529;SDS011;55654;50.966;6.878;2023-02-11T05:48:08;49.33;;;25.00;;
43529;SDS011;55654;50.966;6.878;2023-02-11T05:50:34;52.00;;;26.77;;
43529;SDS011;55654;50.966;6.878;2023-02-11T05:53:00;52.10;;;27.77;;
43529;SDS011;55654;50.966;6.878;2023-02-11T05:55:26;57.80;;;27.93;;
43529;SDS011;55654;50.966;6.878;2023-02-11T05:57:52;55.50;;;27.80;;
43529;SDS011;55654;50.966;6.878;2023-02-11T06:00:18;62.67;;;27.63;;
43529;SDS011;55654;50.966;6.878;2023-02-11T06:02:44;62.40;;;28.27;;
43529;SDS011;55654;50.966;6.878;2023-02-11T06:05:10;56.10;;;26.87;;
43529;SDS011;55654;50.966;6.878;2023-02-11T06:07:36;53.37;;;28.30;;
43529;SDS011;55654;50.966;6.878;2023-02-11T06:10:05;60.53;;;29.40;;
43529;SDS011;55654;50.966;6.878;2023-02-11T06:12:31;51.73;;;29.30;;
43529;SDS011;55654;50.966;6.878;2023-02-11T06:14:57;57.57;;;29.20;;
43529;SDS011;55654;50.966;6.878;2023-02-11T06:17:23;58.20;;;29.70;;
43529;SDS011;55654;50.966;6.878;2023-02-11T06:19:55;56.77;;;29.63;;
43529;SDS011;55654;50.966;6.878;2023-02-11T06:22:21;67.70;;;29.33;;
43529;SDS011;55654;50.966;6.878;2023-02-11T06:24:47;58.90;;;30.63;;
43529;SDS011;55654;50.966;6.878;2023-02-11T06:27:13;55.77;;;28.43;;
43529;SDS011;55654;50.966;6.878;2023-02-11T06:29:39;53.93;;;28.27;;
43529;SDS011;55654;50.966;6.878;2023-02-11T06:32:05;56.73;;;29.03;;
43529;SDS011;55654;50.966;6.878;2023-02-11T06:34:31;53.47;;;29.70;;
43529;SDS011;55654;50.966;6.878;2023-02-11T06:36:57;58.03;;;29.70;;
43529;SDS011;55654;50.966;6.878;2023-02-11T06:39:23;59.10;;;29.00;;
43529;SDS011;55654;50.966;6.878;2023-02-11T06:41:51;60.83;;;29.77;;
43529;SDS011;55654;50.966;6.878;2023-02-11T06:44:17;55.63;;;30.67;;
43529;SDS011;55654;50.966;6.878;2023-02-11T06:46:43;50.50;;;29.00;;
43529;SDS011;55654;50.966;6.878;2023-02-11T06:49:12;61.77;;;30.10;;
43529;SDS011;55654;50.966;6.878;2023-02-11T06:51:38;63.90;;;30.83;;
43529;SDS011;55654;50.966;6.878;2023-02-11T06:54:04;50.77;;;28.53;;
43529;SDS011;55654;50.966;6.878;2023-02-11T06:56:31;47.07;;;28.23;;
43529;SDS011;55654;50.966;6.878;2023-02-11T06:58:57;58.03;;;29.70;;
43529;SDS011;55654;50.966;6.878;2023-02-11T07:01:26;54.07;;;28.93;;
43529;SDS011;55654;50.966;6.878;2023-02-11T07:03:52;56.63;;;30.87;;
43529;SDS011;55654;50.966;6.878;2023-02-11T07:06:19;55.77;;;30.17;;
43529;SDS011;55654;50.966;6.878;2023-02-11T07:08:46;59.67;;;29.40;;
43529;SDS011;55654;50.966;6.878;2023-02-11T07:11:13;56.97;;;32.73;;
43529;SDS011;55654;50.966;6.878;2023-02-11T07:13:39;63.80;;;32.20;;
43529;SDS011;55654;50.966;6.878;2023-02-11T07:16:07;58.83;;;31.33;;
43529;SDS011;55654;50.966;6.878;2023-02-11T07:18:33;61.30;;;31.53;;
43529;SDS011;55654;50.966;6.878;2023-02-11T07:21:02;56.17;;;30.33;;
43529;SDS011;55654;50.966;6.878;2023-02-11T07:23:29;60.53;;;32.43;;
43529;SDS011;55654;50.966;6.878;2023-02-11T07:25:55;58.43;;;30.50;;
43529;SDS011;55654;50.966;6.878;2023-02-11T07:28:21;59.97;;;30.53;;
43529;SDS011;55654;50.966;6.878;2023-02-11T07:30:47;57.77;;;33.33;;
43529;SDS011;55654;50.966;6.878;2023-02-11T07:33:13;59.27;;;32.17;;
43529;SDS011;55654;50.966;6.878;2023-02-11T07:35:39;63.17;;;32.50;;
43529;SDS011;55654;50.966;6.878;2023-02-11T07:38:05;62.60;;;32.97;;
43529;SDS011;55654;50.966;6.878;2023-02-11T07:40:31;71.33;;;34.37;;
43529;SDS011;55654;50.966;6.878;2023-02-11T07:42:57;70.30;;;32.93;;
43529;SDS011;55654;50.966;6.878;2023-02-11T07:45:27;66.77;;;34.70;;
43529;SDS011;55654;50.966;6.878;2023-02-11T07:47:56;67.40;;;33.97;;
43529;SDS011;55654;50.966;6.878;2023-02-11T07:50:22;60.73;;;33.50;;
43529;SDS011;55654;50.966;6.878;2023-02-11T07:52:47;60.80;;;33.63;;
43529;SDS011;55654;50.966;6.878;2023-02-11T07:55:13;60.93;;;33.63;;
43529;SDS011;55654;50.966;6.878;2023-02-11T07:57:39;62.73;;;32.83;;
43529;SDS011;55654;50.966;6.878;2023-02-11T08:00:06;72.83;;;35.90;;
43529;SDS011;55654;50.966;6.878;2023-02-11T08:02:34;64.63;;;34.33;;
43529;SDS011;55654;50.966;6.878;2023-02-11T08:05:00;66.97;;;33.77;;
43529;SDS011;55654;50.966;6.878;2023-02-11T08:07:26;65.53;;;34.87;;
43529;SDS011;55654;50.966;6.878;2023-02-11T08:09:53;70.47;;;34.83;;
43529;SDS011;55654;50.966;6.878;2023-02-11T08:12:19;68.87;;;35.73;;
43529;SDS011;55654;50.966;6.878;2023-02-11T08:14:45;75.10;;;37.23;;
43529;SDS011;55654;50.966;6.878;2023-02-11T08:17:11;67.53;;;34.30;;
43529;SDS011;55654;50.966;6.878;2023-02-11T08:19:37;70.57;;;34.13;;
43529;SDS011;55654;50.966;6.878;2023-02-11T08:22:05;65.33;;;35.67;;
43529;SDS011;55654;50.966;6.878;2023-02-11T08:24:31;72.53;;;34.33;;
43529;SDS011;55654;50.966;6.878;2023-02-11T08:26:57;70.70;;;36.10;;
43529;SDS011;55654;50.966;6.878;2023-02-11T08:29:26;75.53;;;34.90;;
43529;SDS011;55654;50.966;6.878;2023-02-11T08:31:52;71.77;;;35.20;;
43529;SDS011;55654;50.966;6.878;2023-02-11T08:34:18;73.10;;;34.50;;
43529;SDS011;55654;50.966;6.878;2023-02-11T08:36:44;71.83;;;34.77;;
43529;SDS011;55654;50.966;6.878;2023-02-11T08:39:15;71.47;;;35.43;;
43529;SDS011;55654;50.966;6.878;2023-02-11T08:41:41;66.93;;;32.57;;
43529;SDS011;55654;50.966;6.878;2023-02-11T08:44:07;70.57;;;35.17;;
43529;SDS011;55654;50.966;6.878;2023-02-11T08:46:33;70.90;;;33.63;;
43529;SDS011;55654;50.966;6.878;2023-02-11T08:48:59;68.33;;;33.80;;
43529;SDS011;55654;50.966;6.878;2023-02-11T08:51:26;68.60;;;34.30;;
43529;SDS011;55654;50.966;6.878;2023-02-11T08:53:52;70.63;;;35.23;;
43529;SDS011;55654;50.966;6.878;2023-02-11T08:56:19;61.97;;;32.43;;
43529;SDS011;55654;50.966;6.878;2023-02-11T08:58:47;73.73;;;35.43;;
43529;SDS011;55654;50.966;6.878;2023-02-11T09:01:17;72.07;;;33.73;;
43529;SDS011;55654;50.966;6.878;2023-02-11T09:03:43;66.30;;;34.43;;
43529;SDS011;55654;50.966;6.878;2023-02-11T09:06:10;66.43;;;31.90;;
43529;SDS011;55654;50.966;6.878;2023-02-11T09:08:36;63.43;;;32.77;;
43529;SDS011;55654;50.966;6.878;2023-02-11T09:11:03;71.40;;;34.43;;
43529;SDS011;55654;50.966;6.878;2023-02-11T09:13:30;69.47;;;31.63;;
43529;SDS011;55654;50.966;6.878;2023-02-11T09:15:56;68.47;;;33.57;;
43529;SDS011;55654;50.966;6.878;2023-02-11T09:18:22;71.03;;;33.53;;
43529;SDS011;55654;50.966;6.878;2023-02-11T09:20:48;60.00;;;30.53;;
43529;SDS011;55654;50.966;6.878;2023-02-11T09:23:14;70.90;;;33.80;;
43529;SDS011;55654;50.966;6.878;2023-02-11T09:25:41;63.37;;;32.23;;
43529;SDS011;55654;50.966;6.878;2023-02-11T09:28:07;58.60;;;29.80;;
43529;SDS011;55654;50.966;6.878;2023-02-11T09:30:34;63.73;;;31.63;;
43529;SDS011;55654;50.966;6.878;2023-02-11T09:33:01;59.47;;;30.57;;
43529;SDS011;55654;50.966;6.878;2023-02-11T09:35:27;57.43;;;31.20;;
43529;SDS011;55654;50.966;6.878;2023-02-11T09:37:53;59.17;;;31.43;;
43529;SDS011;55654;50.966;6.878;2023-02-11T09:40:21;50.27;;;28.83;;
43529;SDS011;55654;50.966;6.878;2023-02-11T09:43:00;52.43;;;27.93;;
43529;SDS011;55654;50.966;6.878;2023-02-11T09:45:28;55.03;;;29.50;;
43529;SDS011;55654;50.966;6.878;2023-02-11T09:47:56;58.47;;;32.13;;
43529;SDS011;55654;50.966;6.878;2023-02-11T09:55:40;56.00;;;30.87;;
43529;SDS011;55654;50.966;6.878;2023-02-11T10:00:36;54.00;;;28.70;;
43529;SDS011;55654;50.966;6.878;2023-02-11T10:11:07;51.93;;;29.23;;
43529;SDS011;55654;50.966;6.878;2023-02-11T10:18:49;49.50;;;27.57;;
43529;SDS011;55654;50.966;6.878;2023-02-11T10:21:34;53.70;;;28.33;;
43529;SDS011;55654;50.966;6.878;2023-02-11T10:24:13;53.03;;;28.33;;
43529;SDS011;55654;50.966;6.878;2023-02-11T10:26:40;52.93;;;27.03;;
43529;SDS011;55654;50.966;6.878;2023-02-11T10:29:20;49.27;;;27.33;;
43529;SDS011;55654;50.966;6.878;2023-02-11T10:31:49;55.07;;;28.20;;
43529;SDS011;55654;50.966;6.878;2023-02-11T10:34:16;48.43;;;27.23;;
43529;SDS011;55654;50.966;6.878;2023-02-11T10:36:42;51.83;;;28.07;;
43529;SDS011;55654;50.966;6.878;2023-02-11T10:41:45;54.63;;;28.42;;
43529;SDS011;55654;50.966;6.878;2023-02-11T10:44:55;49.27;;;27.63;;
43529;SDS011;55654;50.966;6.878;2023-02-11T10:47:21;55.53;;;26.80;;
43529;SDS011;55654;50.966;6.878;2023-02-11T10:49:48;48.87;;;27.87;;
43529;SDS011;55654;50.966;6.878;2023-02-11T10:52:21;49.03;;;28.63;;
43529;SDS011;55654;50.966;6.878;2023-02-11T10:57:37;48.47;;;28.03;;
43529;SDS011;55654;50.966;6.878;2023-02-11T11:00:14;48.37;;;28.77;;
43529;SDS011;55654;50.966;6.878;2023-02-11T11:02:50;46.27;;;27.57;;
43529;SDS011;55654;50.966;6.878;2023-02-11T11:05:17;46.33;;;27.13;;
43529;SDS011;55654;50.966;6.878;2023-02-11T11:07:58;51.37;;;27.87;;
43529;SDS011;55654;50.966;6.878;2023-02-11T11:12:59;49.27;;;27.77;;
43529;SDS011;55654;50.966;6.878;2023-02-11T11:15:27;48.80;;;28.40;;
43529;SDS011;55654;50.966;6.878;2023-02-11T11:20:38;56.77;;;29.47;;
43529;SDS011;55654;50.966;6.878;2023-02-11T11:25:36;47.27;;;27.73;;
43529;SDS011;55654;50.966;6.878;2023-02-11T11:28:04;53.27;;;29.60;;
43529;SDS011;55654;50.966;6.878;2023-02-11T11:30:32;53.30;;;28.67;;
43529;SDS011;55654;50.966;6.878;2023-02-11T11:32:58;53.27;;;29.07;;
43529;SDS011;55654;50.966;6.878;2023-02-11T11:35:35;53.20;;;28.93;;
43529;SDS011;55654;50.966;6.878;2023-02-11T11:38:02;49.53;;;27.53;;
43529;SDS011;55654;50.966;6.878;2023-02-11T11:40:33;51.40;;;28.83;;
43529;SDS011;55654;50.966;6.878;2023-02-11T11:45:32;49.25;;;27.13;;
43529;SDS011;55654;50.966;6.878;2023-02-11T11:50:39;53.80;;;28.40;;
43529;SDS011;55654;50.966;6.878;2023-02-11T11:53:14;49.37;;;27.10;;
43529;SDS011;55654;50.966;6.878;2023-02-11T11:58:12;56.13;;;30.57;;
43529;SDS011;55654;50.966;6.878;2023-02-11T12:13:53;54.60;;;30.13;;
43529;SDS011;55654;50.966;6.878;2023-02-11T12:21:22;55.07;;;28.37;;
43529;SDS011;55654;50.966;6.878;2023-02-11T12:23:57;51.37;;;28.50;;
43529;SDS011;55654;50.966;6.878;2023-02-11T12:36:55;51.67;;;29.27;;
43529;SDS011;55654;50.966;6.878;2023-02-11T12:39:45;53.43;;;29.23;;
43529;SDS011;55654;50.966;6.878;2023-02-11T12:47:59;55.47;;;29.90;;
43529;SDS011;55654;50.966;6.878;2023-02-11T12:50:52;52.57;;;29.40;;
43529;SDS011;55654;50.966;6.878;2023-02-11T12:58:58;57.43;;;31.27;;
43529;SDS011;55654;50.966;6.878;2023-02-11T13:01:28;55.73;;;31.07;;
43529;SDS011;55654;50.966;6.878;2023-02-11T13:03:56;54.27;;;31.20;;
43529;SDS011;55654;50.966;6.878;2023-02-11T13:06:27;55.97;;;30.27;;
43529;SDS011;55654;50.966;6.878;2023-02-11T13:08:56;61.03;;;33.20;;
43529;SDS011;55654;50.966;6.878;2023-02-11T13:11:25;58.20;;;33.07;;
43529;SDS011;55654;50.966;6.878;2023-02-11T13:13:56;62.13;;;32.50;;
43529;SDS011;55654;50.966;6.878;2023-02-11T13:17:09;57.33;;;33.55;;
43529;SDS011;55654;50.966;6.878;2023-02-11T13:21:59;61.33;;;32.30;;
43529;SDS011;55654;50.966;6.878;2023-02-11T13:24:47;61.20;;;33.27;;
43529;SDS011;55654;50.966;6.878;2023-02-11T13:35:41;62.90;;;33.70;;
43529;SDS011;55654;50.966;6.878;2023-02-11T13:38:22;59.97;;;32.07;;
43529;SDS011;55654;50.966;6.878;2023-02-11T13:43:34;62.00;;;34.17;;
43529;SDS011;55654;50.966;6.878;2023-02-11T13:48:36;58.47;;;31.23;;
43529;SDS011;55654;50.966;6.878;2023-02-11T13:51:06;60.37;;;32.90;;
43529;SDS011;55654;50.966;6.878;2023-02-11T13:53:43;61.97;;;32.97;;
43529;SDS011;55654;50.966;6.878;2023-02-11T13:58:49;61.50;;;32.63;;
43529;SDS011;55654;50.966;6.878;2023-02-11T14:13:04;59.33;;;33.50;;
43529;SDS011;55654;50.966;6.878;2023-02-11T14:15:37;62.27;;;34.27;;
43529;SDS011;55654;50.966;6.878;2023-02-11T14:18:34;64.88;;;33.83;;
43529;SDS011;55654;50.966;6.878;2023-02-11T14:20:49;60.00;;;32.03;;
43529;SDS011;55654;50.966;6.878;2023-02-11T14:23:24;66.13;;;33.80;;
43529;SDS011;55654;50.966;6.878;2023-02-11T14:25:57;62.47;;;33.93;;
43529;SDS011;55654;50.966;6.878;2023-02-11T14:28:25;61.93;;;31.90;;
43529;SDS011;55654;50.966;6.878;2023-02-11T14:41:11;65.23;;;33.13;;
43529;SDS011;55654;50.966;6.878;2023-02-11T14:43:45;64.05;;;36.10;;
43529;SDS011;55654;50.966;6.878;2023-02-11T14:46:16;63.17;;;34.30;;
43529;SDS011;55654;50.966;6.878;2023-02-11T14:48:46;64.07;;;34.80;;
43529;SDS011;55654;50.966;6.878;2023-02-11T14:53:49;69.03;;;34.90;;
43529;SDS011;55654;50.966;6.878;2023-02-11T14:56:17;67.67;;;35.30;;
43529;SDS011;55654;50.966;6.878;2023-02-11T14:58:47;63.70;;;33.67;;
43529;SDS011;55654;50.966;6.878;2023-02-11T15:03:59;61.90;;;33.00;;
43529;SDS011;55654;50.966;6.878;2023-02-11T15:11:32;59.70;;;32.30;;
43529;SDS011;55654;50.966;6.878;2023-02-11T15:14:05;67.30;;;33.87;;
43529;SDS011;55654;50.966;6.878;2023-02-11T15:16:31;58.15;;;31.15;;
43529;SDS011;55654;50.966;6.878;2023-02-11T15:19:02;70.17;;;36.57;;
43529;SDS011;55654;50.966;6.878;2023-02-11T15:21:30;67.38;;;35.70;;
43529;SDS011;55654;50.966;6.878;2023-02-11T15:24:01;72.90;;;38.60;;
43529;SDS011;55654;50.966;6.878;2023-02-11T15:26:29;66.63;;;37.03;;
43529;SDS011;55654;50.966;6.878;2023-02-11T15:28:56;70.60;;;34.77;;
43529;SDS011;55654;50.966;6.878;2023-02-11T15:31:23;67.93;;;34.70;;
43529;SDS011;55654;50.966;6.878;2023-02-11T15:33:52;64.23;;;34.13;;
43529;SDS011;55654;50.966;6.878;2023-02-11T15:36:19;63.07;;;35.33;;
43529;SDS011;55654;50.966;6.878;2023-02-11T15:39:35;60.47;;;32.30;;
43529;SDS011;55654;50.966;6.878;2023-02-11T15:41:35;64.17;;;34.67;;
43529;SDS011;55654;50.966;6.878;2023-02-11T15:44:01;66.00;;;36.70;;
43529;SDS011;55654;50.966;6.878;2023-02-11T15:46:31;67.53;;;35.73;;
43529;SDS011;55654;50.966;6.878;2023-02-11T15:49:00;68.00;;;34.08;;
43529;SDS011;55654;50.966;6.878;2023-02-11T15:51:35;68.00;;;34.40;;
43529;SDS011;55654;50.966;6.878;2023-02-11T15:54:03;64.37;;;34.47;;
43529;SDS011;55654;50.966;6.878;2023-02-11T15:56:37;69.53;;;36.60;;
43529;SDS011;55654;50.966;6.878;2023-02-11T15:59:15;72.43;;;36.57;;
43529;SDS011;55654;50.966;6.878;2023-02-11T16:01:46;65.80;;;36.60;;
43529;SDS011;55654;50.966;6.878;2023-02-11T16:04:15;64.35;;;35.70;;
43529;SDS011;55654;50.966;6.878;2023-02-11T16:06:41;68.70;;;34.57;;
43529;SDS011;55654;50.966;6.878;2023-02-11T16:09:21;86.90;;;43.87;;
43529;SDS011;55654;50.966;6.878;2023-02-11T16:14:27;69.20;;;35.77;;
43529;SDS011;55654;50.966;6.878;2023-02-11T16:17:03;77.80;;;41.83;;
43529;SDS011;55654;50.966;6.878;2023-02-11T16:19:31;66.23;;;34.60;;
43529;SDS011;55654;50.966;6.878;2023-02-11T16:21:58;65.27;;;35.50;;
43529;SDS011;55654;50.966;6.878;2023-02-11T16:24:29;74.37;;;38.00;;
43529;SDS011;55654;50.966;6.878;2023-02-11T16:26:57;72.83;;;37.47;;
43529;SDS011;55654;50.966;6.878;2023-02-11T16:29:34;67.10;;;34.90;;
43529;SDS011;55654;50.966;6.878;2023-02-11T16:32:09;63.73;;;35.50;;
43529;SDS011;55654;50.966;6.878;2023-02-11T16:34:40;65.77;;;35.40;;
43529;SDS011;55654;50.966;6.878;2023-02-11T16:37:06;59.63;;;34.03;;
43529;SDS011;55654;50.966;6.878;2023-02-11T16:39:32;68.70;;;35.93;;
43529;SDS011;55654;50.966;6.878;2023-02-11T16:41:58;71.33;;;36.07;;
43529;SDS011;55654;50.966;6.878;2023-02-11T16:44:25;65.40;;;35.03;;
43529;SDS011;55654;50.966;6.878;2023-02-11T16:46:51;68.57;;;36.27;;
43529;SDS011;55654;50.966;6.878;2023-02-11T16:49:23;60.97;;;32.23;;
43529;SDS011;55654;50.966;6.878;2023-02-11T16:51:51;72.13;;;35.20;;
43529;SDS011;55654;50.966;6.878;2023-02-11T16:54:20;61.63;;;35.13;;
43529;SDS011;55654;50.966;6.878;2023-02-11T16:56:46;73.20;;;38.20;;
43529;SDS011;55654;50.966;6.878;2023-02-11T16:59:12;71.73;;;37.50;;
43529;SDS011;55654;50.966;6.878;2023-02-11T17:01:41;73.83;;;37.33;;
43529;SDS011;55654;50.966;6.878;2023-02-11T17:04:16;73.40;;;36.00;;
43529;SDS011;55654;50.966;6.878;2023-02-11T17:06:42;71.40;;;37.50;;
43529;SDS011;55654;50.966;6.878;2023-02-11T17:09:10;72.57;;;37.00;;
43529;SDS011;55654;50.966;6.878;2023-02-11T17:11:40;77.03;;;38.07;;
43529;SDS011;55654;50.966;6.878;2023-02-11T17:14:06;71.53;;;37.50;;
43529;SDS011;55654;50.966;6.878;2023-02-11T17:16:32;73.77;;;38.23;;
43529;SDS011;55654;50.966;6.878;2023-02-11T17:18:58;76.40;;;37.60;;